Maria Magdalena — HKCT4 — position and weather

sailwx.info

Track history (hours):
 
Tides and Currents Weather Stations Pressure Air Temp Water Temp Dewpoint Dewpoint Depression Visibility Wind Speed Wind Dir Waves Ship Positions

Maria Magdalena

Last reported at 2018-Jun-22 17:57 UTC. Time now 2018-Jun-24 12:24 UTC.
Position N 10°17' W 075°31'.

Length 12 m.

Type: Towing. MMSI: 730151551.

Date/timePositionNaut miles runAvg speedWind from/ knotsBaromVisibWave heightAir tempDewpointWater temp
2018-Jun-22 17:57N 10°17' W 075°31'1 0.1
2018-Jun-22 08:10N 10°17' W 075°31'1 0.0
2018-Jun-21 02:42N 10°17' W 075°31'0 0.0
2018-Jun-20 14:44N 10°17' W 075°31'2 5.7
2018-Jun-20 14:28N 10°18' W 075°32'3 2.6
2018-Jun-20 13:13N 10°21' W 075°31'1 5.5
2018-Jun-20 12:58N 10°22' W 075°32'2 3.3
2018-Jun-20 12:24N 10°24' W 075°32'0 0.0
2018-Jun-20 11:57N 10°24' W 075°32'0 0.0
2018-Jun-20 11:24N 10°24' W 075°32'0 0.0
2018-Jun-20 10:51N 10°24' W 075°32'0 0.0
2018-Jun-20 10:27N 10°24' W 075°32'0 0.0
2018-Jun-20 10:00N 10°24' W 075°32'0 0.0
2018-Jun-20 09:27N 10°24' W 075°32'0 0.0
2018-Jun-20 09:00N 10°24' W 075°32'0 0.0
2018-Jun-20 08:21N 10°24' W 075°32'0 0.0
2018-Jun-20 07:39N 10°24' W 075°32'0 0.7
2018-Jun-20 07:21N 10°24' W 075°32'1 1.0
2018-Jun-20 06:42N 10°23' W 075°32'1 1.1
2018-Jun-20 06:08N 10°23' W 075°32'1 3.2
2018-Jun-20 05:58N 10°22' W 075°32'2 4.9
2018-Jun-20 05:29N 10°20' W 075°31'2 4.0
2018-Jun-20 04:56N 10°18' W 075°30'2 3.8
2018-Jun-20 04:30N 10°19' W 075°32'3 0.1
2018-Jun-19 00:44N 10°17' W 075°31'1 2.9
2018-Jun-19 00:30N 10°17' W 075°31'0 0.1
2018-Jun-19 00:00N 10°17' W 075°31'0 0.4
2018-Jun-18 23:28N 10°17' W 075°31'0 0.3
2018-Jun-18 23:00N 10°17' W 075°31'0 0.2
2018-Jun-18 22:30N 10°17' W 075°31'  
2018-Jun-15 20:22N 10°17' W 075°31'1 0.1
2018-Jun-15 09:14N 10°17' W 075°31'1 0.0
2018-Jun-14 03:41N 10°17' W 075°31'1 4.3
2018-Jun-14 03:30N 10°17' W 075°31'1 2.6
2018-Jun-14 03:00N 10°18' W 075°30'1 1.3
2018-Jun-14 02:29N 10°19' W 075°31'3 5.6
2018-Jun-14 02:00N 10°21' W 075°32'5 0.4
2018-Jun-13 14:46N 10°17' W 075°31'1 4.0
2018-Jun-13 14:29N 10°18' W 075°32'1 2.2
2018-Jun-13 14:00N 10°18' W 075°31'0 0.8
2018-Jun-13 13:29N 10°18' W 075°30'0 0.1
2018-Jun-13 12:59N 10°18' W 075°30'0 0.0
2018-Jun-13 12:29N 10°18' W 075°30'0 0.0
2018-Jun-13 11:59N 10°18' W 075°30'0 0.0
2018-Jun-13 11:29N 10°18' W 075°30'0 0.0
2018-Jun-13 10:56N 10°18' W 075°30'0 0.0
2018-Jun-13 10:26N 10°18' W 075°30'0 0.0
2018-Jun-13 09:56N 10°18' W 075°30'1 3.0
2018-Jun-13 09:28N 10°19' W 075°31'2 5.2
2018-Jun-13 09:00N 10°22' W 075°32'3 5.2
2018-Jun-13 08:29N 10°24' W 075°32'0 0.0
2018-Jun-13 04:14N 10°24' W 075°32'0 0.3
2018-Jun-13 03:51N 10°24' W 075°32'1 2.3
2018-Jun-13 03:25N 10°23' W 075°32'2 4.9
2018-Jun-13 02:59N 10°21' W 075°31'2 4.3
2018-Jun-13 02:29N 10°19' W 075°31'1 2.3
2018-Jun-13 01:56N 10°18' W 075°31'0 0.1
2018-Jun-13 01:28N 10°18' W 075°31'1 1.0
2018-Jun-13 00:57N 10°18' W 075°30'0 0.0
2018-Jun-13 00:27N 10°18' W 075°30'0 0.0
2018-Jun-12 23:57N 10°18' W 075°30'0 0.0
2018-Jun-12 23:24N 10°18' W 075°30'0 0.0
2018-Jun-12 23:00N 10°18' W 075°30'2 3.1
2018-Jun-12 22:30N 10°19' W 075°32'2 5.0
2018-Jun-12 22:00N 10°17' W 075°31'  
Track history (hours):
 
Tides and Currents Weather Stations Pressure Air Temp Water Temp Dewpoint Dewpoint Depression Visibility Wind Speed Wind Dir Waves Ship Positions

Maria Magdalena

Last reported at 2018-Jun-22 17:57 UTC. Time now 2018-Jun-24 12:24 UTC.
Position N 10°17' W 075°31'.

Length 12 m.

Type: Towing. MMSI: 730151551.

Date/timePositionNaut miles runAvg speedWind from/ knotsBaromVisibWave heightAir tempDewpointWater temp
2018-Jun-22 17:57N 10°17' W 075°31'1 0.1
2018-Jun-22 08:10N 10°17' W 075°31'1 0.0
2018-Jun-21 02:42N 10°17' W 075°31'0 0.0
2018-Jun-20 14:44N 10°17' W 075°31'2 5.7
2018-Jun-20 14:28N 10°18' W 075°32'3 2.6
2018-Jun-20 13:13N 10°21' W 075°31'1 5.5
2018-Jun-20 12:58N 10°22' W 075°32'2 3.3
2018-Jun-20 12:24N 10°24' W 075°32'0 0.0
2018-Jun-20 11:57N 10°24' W 075°32'0 0.0
2018-Jun-20 11:24N 10°24' W 075°32'0 0.0
2018-Jun-20 10:51N 10°24' W 075°32'0 0.0
2018-Jun-20 10:27N 10°24' W 075°32'0 0.0
2018-Jun-20 10:00N 10°24' W 075°32'0 0.0
2018-Jun-20 09:27N 10°24' W 075°32'0 0.0
2018-Jun-20 09:00N 10°24' W 075°32'0 0.0
2018-Jun-20 08:21N 10°24' W 075°32'0 0.0
2018-Jun-20 07:39N 10°24' W 075°32'0 0.7
2018-Jun-20 07:21N 10°24' W 075°32'1 1.0
2018-Jun-20 06:42N 10°23' W 075°32'1 1.1
2018-Jun-20 06:08N 10°23' W 075°32'1 3.2
2018-Jun-20 05:58N 10°22' W 075°32'2 4.9
2018-Jun-20 05:29N 10°20' W 075°31'2 4.0
2018-Jun-20 04:56N 10°18' W 075°30'2 3.8
2018-Jun-20 04:30N 10°19' W 075°32'3 0.1
2018-Jun-19 00:44N 10°17' W 075°31'1 2.9
2018-Jun-19 00:30N 10°17' W 075°31'0 0.1
2018-Jun-19 00:00N 10°17' W 075°31'0 0.4
2018-Jun-18 23:28N 10°17' W 075°31'0 0.3
2018-Jun-18 23:00N 10°17' W 075°31'0 0.2
2018-Jun-18 22:30N 10°17' W 075°31'  
2018-Jun-15 20:22N 10°17' W 075°31'1 0.1
2018-Jun-15 09:14N 10°17' W 075°31'1 0.0
2018-Jun-14 03:41N 10°17' W 075°31'1 4.3
2018-Jun-14 03:30N 10°17' W 075°31'1 2.6
2018-Jun-14 03:00N 10°18' W 075°30'1 1.3
2018-Jun-14 02:29N 10°19' W 075°31'3 5.6
2018-Jun-14 02:00N 10°21' W 075°32'5 0.4
2018-Jun-13 14:46N 10°17' W 075°31'1 4.0
2018-Jun-13 14:29N 10°18' W 075°32'1 2.2
2018-Jun-13 14:00N 10°18' W 075°31'0 0.8
2018-Jun-13 13:29N 10°18' W 075°30'0 0.1
2018-Jun-13 12:59N 10°18' W 075°30'0 0.0
2018-Jun-13 12:29N 10°18' W 075°30'0 0.0
2018-Jun-13 11:59N 10°18' W 075°30'0 0.0
2018-Jun-13 11:29N 10°18' W 075°30'0 0.0
2018-Jun-13 10:56N 10°18' W 075°30'0 0.0
2018-Jun-13 10:26N 10°18' W 075°30'0 0.0
2018-Jun-13 09:56N 10°18' W 075°30'1 3.0
2018-Jun-13 09:28N 10°19' W 075°31'2 5.2
2018-Jun-13 09:00N 10°22' W 075°32'3 5.2
2018-Jun-13 08:29N 10°24' W 075°32'0 0.0
2018-Jun-13 04:14N 10°24' W 075°32'0 0.3
2018-Jun-13 03:51N 10°24' W 075°32'1 2.3
2018-Jun-13 03:25N 10°23' W 075°32'2 4.9
2018-Jun-13 02:59N 10°21' W 075°31'2 4.3
2018-Jun-13 02:29N 10°19' W 075°31'1 2.3
2018-Jun-13 01:56N 10°18' W 075°31'0 0.1
2018-Jun-13 01:28N 10°18' W 075°31'1 1.0
2018-Jun-13 00:57N 10°18' W 075°30'0 0.0
2018-Jun-13 00:27N 10°18' W 075°30'0 0.0
2018-Jun-12 23:57N 10°18' W 075°30'0 0.0
2018-Jun-12 23:24N 10°18' W 075°30'0 0.0
2018-Jun-12 23:00N 10°18' W 075°30'2 3.1
2018-Jun-12 22:30N 10°19' W 075°32'2 5.0
2018-Jun-12 22:00N 10°17' W 075°31'  

Dump ship's entire track history